Time;durP1;ratioP1;P1;durP2;ratioP2;P2;SDS_P1;SDS_P2;PMS_P1;PMS_P2;Temp;Humidity;BMP_temperature;BMP_pressure;BME280_temperature;BME280_humidity;BME280_pressure;Samples;Min_cycle;Max_cycle;Signal;HPM_P1;HPM_P2
2022/11/17 00:04:52;;;;;;;6.03;1.10;;;10.90;99.90;;;;;;4989726;28;20026;-86
2022/11/17 00:07:18;;;;;;;4.55;1.23;;;;;;;;;;4992954;28;20090;-87
2022/11/17 00:09:44;;;;;;;3.55;1.58;;;;;;;;;;4990752;28;20094;-85
2022/11/17 00:14:55;;;;;;;3.58;1.50;;;;;;;;;;4988509;28;20083;-84
2022/11/17 00:17:21;;;;;;;3.13;1.15;;;;;;;;;;4970965;28;20015;-84
2022/11/17 00:22:31;;;;;;;4.47;1.48;;;11.50;99.90;;;;;;4985020;28;20054;-84
2022/11/17 00:24:57;;;;;;;5.80;1.42;;;;;;;;;;4970370;28;20011;-88
2022/11/17 00:27:23;;;;;;;4.13;1.75;;;;;;;;;;4988184;28;20022;-86
2022/11/17 00:29:49;;;;;;;4.65;1.30;;;11.00;99.90;;;;;;4968174;28;20034;-92
2022/11/17 00:35:01;;;;;;;3.95;1.35;;;13.60;99.90;;;;;;4990325;28;20049;-87
2022/11/17 00:37:31;;;;;;;2.75;1.20;;;10.90;99.90;;;;;;4987925;28;20019;-89
2022/11/17 00:39:57;;;;;;;4.72;1.50;;;12.70;99.90;;;;;;4969674;28;20278;-89
2022/11/17 00:42:23;;;;;;;3.03;1.27;;;;;;;;;;4972823;28;20026;-87
2022/11/17 00:44:50;;;;;;;3.70;1.33;;;10.90;99.90;;;;;;4969981;28;20042;-87
2022/11/17 00:47:15;;;;;;;2.83;1.15;;;10.90;99.90;;;;;;4996372;28;20046;-85
2022/11/17 00:49:41;;;;;;;2.63;1.05;;;;;;;;;;4991692;28;20062;-88
2022/11/17 00:52:07;;;;;;;6.97;2.00;;;;;;;;;;4978212;28;20034;-86
2022/11/17 00:54:33;;;;;;;6.05;1.90;;;;;;;;;;4978300;28;20046;-87
2022/11/17 00:56:59;;;;;;;3.50;1.42;;;11.00;99.90;;;;;;4995394;28;20031;-90
2022/11/17 00:59:24;;;;;;;3.67;1.50;;;10.70;99.90;;;;;;4992575;28;20063;-89
2022/11/17 01:01:50;;;;;;;2.63;1.20;;;10.90;99.90;;;;;;4976860;28;20047;-86
2022/11/17 01:04:16;;;;;;;2.75;1.20;;;10.90;99.90;;;;;;4989489;28;20055;-87
2022/11/17 01:06:44;;;;;;;4.97;1.60;;;10.90;99.90;;;;;;4972017;28;20094;-88
2022/11/17 01:09:18;;;;;;;5.57;2.00;;;10.90;99.90;;;;;;4974355;28;20049;-88
2022/11/17 01:11:45;;;;;;;4.13;1.73;;;10.90;99.90;;;;;;4968011;28;20062;-88
2022/11/17 01:14:14;;;;;;;3.53;1.60;;;10.90;99.90;;;;;;4977053;28;20055;-87
2022/11/17 01:16:40;;;;;;;4.20;1.40;;;10.90;99.90;;;;;;4998121;28;20011;-86
2022/11/17 01:19:05;;;;;;;3.92;1.70;;;10.90;99.90;;;;;;4981040;28;20077;-90
2022/11/17 01:21:32;;;;;;;6.32;2.33;;;;;;;;;;4985017;28;20055;-89
2022/11/17 01:23:59;;;;;;;5.38;1.85;;;10.90;99.90;;;;;;5008381;28;20031;-85
2022/11/17 01:26:28;;;;;;;5.80;1.70;;;10.90;99.90;;;;;;4978640;28;20022;-88
2022/11/17 01:28:54;;;;;;;5.32;1.65;;;;;;;;;;4973468;28;20011;-87
2022/11/17 01:31:23;;;;;;;3.80;1.55;;;10.90;99.90;;;;;;4988999;28;20018;-88
2022/11/17 01:33:49;;;;;;;6.63;1.80;;;;;;;;;;4991793;28;20030;-83
2022/11/17 01:36:20;;;;;;;4.45;1.65;;;10.90;99.90;;;;;;4983188;28;20031;-88
2022/11/17 01:38:45;;;;;;;;;;;13.90;99.90;;;;;;4996761;28;20019;-85
2022/11/17 01:41:20;;;;;;;3.35;1.65;;;10.90;99.90;;;;;;4977408;28;19964;-86
2022/11/17 01:43:46;;;;;;;3.67;1.60;;;;;;;;;;4993413;28;20023;-84
2022/11/17 01:46:37;;;;;;;4.85;1.48;;;10.90;99.90;;;;;;4979543;28;20037;-87
2022/11/17 01:49:26;;;;;;;5.57;1.85;;;10.80;99.90;;;;;;4967450;28;20035;-84
2022/11/17 01:51:58;;;;;;;3.83;1.67;;;11.70;99.90;;;;;;4969768;28;20031;-83
2022/11/17 01:54:29;;;;;;;4.55;1.73;;;11.00;99.90;;;;;;4985223;28;20035;-84
2022/11/17 01:57:05;;;;;;;4.15;1.88;;;10.90;99.90;;;;;;4995080;28;20038;-87
2022/11/17 01:59:38;;;;;;;6.30;1.70;;;13.50;99.90;;;;;;4981240;28;20057;-85
2022/11/17 02:02:05;;;;;;;6.35;1.83;;;14.10;99.90;;;;;;4988382;28;20520;-84
2022/11/17 02:04:35;;;;;;;4.78;1.70;;;8.90;99.90;;;;;;4975235;28;21161;-87
2022/11/17 02:07:24;;;;;;;5.03;1.75;;;11.00;99.90;;;;;;4987663;28;20023;-86
2022/11/17 02:09:51;;;;;;;4.00;1.40;;;11.00;99.90;;;;;;4980224;28;20062;-89
2022/11/17 02:12:18;;;;;;;5.20;1.67;;;8.60;99.90;;;;;;4985342;28;20954;-88
2022/11/17 02:14:44;;;;;;;4.28;1.67;;;12.70;99.90;;;;;;4998709;28;20018;-89
2022/11/17 02:17:11;;;;;;;3.78;1.23;;;;;;;;;;4976246;28;20019;-87
2022/11/17 02:19:39;;;;;;;3.95;1.30;;;11.00;99.90;;;;;;4982477;28;20011;-84
2022/11/17 02:22:08;;;;;;;3.78;1.30;;;;;;;;;;4982498;28;20061;-84
2022/11/17 02:24:34;;;;;;;4.07;1.80;;;;;;;;;;4974106;28;20023;-84
2022/11/17 02:27:18;;;;;;;3.15;1.45;;;11.00;99.90;;;;;;4990253;28;20443;-85
2022/11/17 02:30:06;;;;;;;3.35;1.48;;;11.00;99.90;;;;;;4988896;28;20022;-84
2022/11/17 02:32:44;;;;;;;3.25;1.42;;;11.00;99.90;;;;;;4967919;28;20026;-84
2022/11/17 02:35:41;;;;;;;3.75;1.35;;;11.10;99.90;;;;;;4994939;28;20027;-84
2022/11/17 02:38:09;;;;;;;3.45;1.10;;;11.30;99.90;;;;;;5001611;28;20015;-83
2022/11/17 02:40:50;;;;;;;1.55;0.90;;;11.10;99.90;;;;;;4969977;28;20039;-86
2022/11/17 02:46:03;;;;;;;3.88;1.05;;;;;;;;;;4991779;28;20050;-89
2022/11/17 02:48:34;;;;;;;3.70;1.00;;;;;;;;;;4981155;28;20058;-84
2022/11/17 02:51:03;;;;;;;1.92;0.90;;;11.40;99.90;;;;;;4982146;28;20035;-83
2022/11/17 02:53:30;;;;;;;2.28;0.82;;;11.40;99.90;;;;;;4950156;28;20022;-83
2022/11/17 02:55:58;;;;;;;1.63;0.73;;;;;;;;;;5009376;28;20074;-83
2022/11/17 02:58:24;;;;;;;1.80;0.70;;;;;;;;;;4996754;28;20019;-87
2022/11/17 03:00:50;;;;;;;1.50;0.93;;;;;;;;;;4989978;28;20042;-88
2022/11/17 03:03:16;;;;;;;1.35;0.63;;;;;;;;;;4999006;28;20027;-87
2022/11/17 03:05:52;;;;;;;2.97;0.85;;;;;;;;;;5004240;28;20015;-88
2022/11/17 03:08:39;;;;;;;2.58;0.80;;;;;;;;;;4999183;28;20007;-87
2022/11/17 03:11:07;;;;;;;2.53;0.70;;;;;;;;;;4977489;28;20019;-88
2022/11/17 03:13:39;;;;;;;2.45;0.80;;;;;;;;;;4983883;28;20029;-90
2022/11/17 03:16:05;;;;;;;3.15;0.77;;;;;;;;;;4987211;28;20054;-87
2022/11/17 03:18:38;;;;;;;1.60;0.73;;;11.70;99.90;;;;;;4979831;28;20066;-86
2022/11/17 03:21:30;;;;;;;3.85;0.90;;;11.60;99.90;;;;;;4972957;28;20078;-84
2022/11/17 03:24:04;;;;;;;1.85;0.70;;;12.80;99.90;;;;;;4974034;28;20030;-85
2022/11/17 03:26:38;;;;;;;3.17;0.88;;;11.90;99.90;;;;;;4972308;28;20034;-85
2022/11/17 03:29:09;;;;;;;2.50;0.90;;;13.50;99.90;;;;;;5005258;23;20039;-81
2022/11/17 03:31:36;;;;;;;3.17;0.80;;;11.70;99.90;;;;;;4973696;28;20410;-86
2022/11/17 03:34:06;;;;;;;2.45;0.80;;;11.60;99.90;;;;;;4986772;28;20027;-82
2022/11/17 03:36:36;;;;;;;4.03;0.80;;;12.00;99.90;;;;;;4989463;28;20027;-82
2022/11/17 03:39:07;;;;;;;2.58;0.80;;;11.60;99.90;;;;;;4984514;28;20106;-83
2022/11/17 03:41:38;;;;;;;3.78;0.80;;;11.60;99.90;;;;;;5000865;28;20033;-83
2022/11/17 03:44:05;;;;;;;2.92;0.88;;;11.60;99.90;;;;;;5000669;28;20019;-82
2022/11/17 03:46:33;;;;;;;2.55;0.73;;;11.60;99.90;;;;;;4984413;28;20038;-84
2022/11/17 03:49:15;;;;;;;2.17;1.00;;;11.50;99.90;;;;;;4982814;28;20018;-83
2022/11/17 03:51:41;;;;;;;2.47;1.00;;;11.60;99.90;;;;;;4985897;28;20062;-85
2022/11/17 03:54:08;;;;;;;3.58;1.20;;;11.50;99.90;;;;;;4992569;28;20046;-80
2022/11/17 03:56:46;;;;;;;2.47;0.80;;;11.60;99.90;;;;;;5005354;28;20026;-81
2022/11/17 03:59:22;;;;;;;3.60;0.90;;;11.60;99.90;;;;;;4982767;28;20022;-81
2022/11/17 04:01:47;;;;;;;2.20;1.00;;;11.60;99.90;;;;;;4986137;28;20057;-81
2022/11/17 04:04:18;;;;;;;4.28;1.10;;;11.50;99.90;;;;;;4989770;28;20026;-82
2022/11/17 04:06:44;;;;;;;8.13;1.50;;;11.80;99.90;;;;;;5000591;28;20546;-81
2022/11/17 04:09:10;;;;;;;2.58;1.20;;;11.80;99.90;;;;;;4992051;28;20030;-83
2022/11/17 04:17:04;;;;;;;3.35;1.13;;;11.60;99.90;;;;;;4987061;28;20017;-85
2022/11/17 04:19:30;;;;;;;2.75;0.90;;;12.10;99.90;;;;;;4985558;28;20098;-79
2022/11/17 04:21:55;;;;;;;3.95;1.00;;;11.70;99.90;;;;;;5003516;28;20045;-84
2022/11/17 04:24:21;;;;;;;3.88;1.20;;;12.40;99.90;;;;;;5005527;28;20033;-82
2022/11/17 04:29:32;;;;;;;2.60;1.00;;;11.60;99.90;;;;;;4996649;28;20069;-81
2022/11/17 04:31:58;;;;;;;2.67;1.02;;;11.60;99.90;;;;;;4982467;28;20099;-85
2022/11/17 04:34:24;;;;;;;2.08;1.25;;;11.60;99.90;;;;;;4991700;28;20034;-82
2022/11/17 04:36:50;;;;;;;3.33;0.90;;;;;;;;;;4988492;28;20131;-83
2022/11/17 04:39:16;;;;;;;4.38;1.10;;;11.60;99.90;;;;;;4989270;28;20030;-82
2022/11/17 04:42:00;;;;;;;4.82;1.17;;;11.60;99.90;;;;;;4985499;28;20058;-82
2022/11/17 04:44:28;;;;;;;3.83;0.90;;;11.60;99.90;;;;;;5000703;28;20027;-83
2022/11/17 04:46:54;;;;;;;5.82;1.05;;;11.60;99.90;;;;;;5003982;28;19999;-83
2022/11/17 04:49:21;;;;;;;3.92;1.00;;;11.60;99.90;;;;;;4985158;28;20019;-83
2022/11/17 04:51:48;;;;;;;3.90;0.90;;;11.60;99.90;;;;;;4994117;28;20014;-83
2022/11/17 04:54:15;;;;;;;3.72;1.10;;;11.70;99.90;;;;;;5001941;28;20090;-85
2022/11/17 04:56:41;;;;;;;7.82;1.98;;;11.70;99.90;;;;;;4998420;28;20459;-81
2022/11/17 04:59:08;;;;;;;2.63;0.90;;;11.70;99.90;;;;;;4998074;28;20014;-81
2022/11/17 05:01:34;;;;;;;2.60;0.80;;;11.70;99.90;;;;;;4991496;28;20046;-83
2022/11/17 05:04:11;;;;;;;4.15;0.90;;;11.70;99.90;;;;;;4984152;28;20044;-85
2022/11/17 05:06:39;;;;;;;2.72;0.90;;;11.70;99.90;;;;;;4982373;28;20129;-81
2022/11/17 05:09:10;;;;;;;2.15;1.00;;;11.80;99.90;;;;;;4987520;28;20034;-81
2022/11/17 05:14:21;;;;;;;2.60;1.00;;;11.60;99.90;;;;;;4992371;28;19925;-80
2022/11/17 05:17:07;;;;;;;4.63;1.00;;;11.60;99.90;;;;;;4979014;28;20027;-79
2022/11/17 05:19:47;;;;;;;2.08;0.98;;;11.70;99.90;;;;;;4976910;28;20115;-80
2022/11/17 05:25:06;;;;;;;3.50;1.10;;;11.70;99.90;;;;;;4999290;28;20093;-80
2022/11/17 05:27:32;;;;;;;1.83;0.90;;;11.60;99.90;;;;;;4986733;28;20023;-81
2022/11/17 05:29:59;;;;;;;4.93;1.10;;;11.60;99.90;;;;;;4983589;28;20065;-81
2022/11/17 05:32:24;;;;;;;5.47;1.00;;;11.60;99.90;;;;;;4997063;28;20034;-79
2022/11/17 05:34:50;;;;;;;2.53;0.90;;;;;;;;;;4996515;28;20125;-82
2022/11/17 05:37:16;;;;;;;3.45;1.00;;;11.60;99.90;;;;;;4993175;28;20033;-79
2022/11/17 05:39:42;;;;;;;4.15;0.90;;;;;;;;;;4983596;28;20105;-82
2022/11/17 05:42:08;;;;;;;2.10;0.98;;;11.60;99.90;;;;;;4979982;28;20035;-82
2022/11/17 05:44:34;;;;;;;4.65;1.00;;;11.60;99.90;;;;;;4999712;28;20022;-79
2022/11/17 05:46:59;;;;;;;3.60;1.10;;;11.60;99.90;;;;;;4988179;28;20034;-82
2022/11/17 05:49:25;;;;;;;4.10;1.10;;;11.70;99.90;;;;;;4996156;28;20019;-81
2022/11/17 05:51:51;;;;;;;3.83;1.50;;;11.70;99.90;;;;;;4988271;28;20050;-80
2022/11/17 05:54:16;;;;;;;3.95;1.00;;;11.70;99.90;;;;;;4983207;28;20034;-83
2022/11/17 05:57:08;;;;;;;5.82;1.10;;;11.70;99.90;;;;;;5000300;28;20038;-84
2022/11/17 05:59:48;;;;;;;6.55;1.13;;;11.70;99.90;;;;;;4994421;28;20034;-80
2022/11/17 06:02:24;;;;;;;7.97;1.30;;;11.80;99.90;;;;;;4984559;28;20057;-80
2022/11/17 06:04:50;;;;;;;6.45;1.60;;;11.90;99.90;;;;;;5002460;28;20027;-82
2022/11/17 06:07:17;;;;;;;3.95;1.15;;;11.80;99.90;;;;;;4981856;28;20560;-80
2022/11/17 06:09:43;;;;;;;6.70;1.42;;;11.80;99.90;;;;;;4983766;28;20037;-82
2022/11/17 06:12:10;;;;;;;7.45;1.60;;;11.80;99.90;;;;;;4999495;28;20122;-81
2022/11/17 06:14:38;;;;;;;5.35;1.40;;;11.80;99.90;;;;;;4979556;28;20030;-82
2022/11/17 06:17:09;;;;;;;6.88;1.35;;;12.00;99.90;;;;;;5005302;28;20295;-81
2022/11/17 06:19:41;;;;;;;10.48;1.58;;;11.80;99.90;;;;;;4986322;28;20018;-82
2022/11/17 06:22:07;;;;;;;6.28;1.40;;;11.80;99.90;;;;;;4992413;28;20064;-81
2022/11/17 06:24:32;;;;;;;7.65;1.60;;;12.40;99.90;;;;;;4987088;28;20026;-80
2022/11/17 06:26:58;;;;;;;9.02;1.90;;;12.50;99.90;;;;;;4991887;28;20026;-81
2022/11/17 06:29:25;;;;;;;8.30;1.50;;;11.80;99.90;;;;;;4988535;28;20099;-81
2022/11/17 06:31:50;;;;;;;6.32;1.60;;;11.90;99.90;;;;;;5004620;28;20034;-79
2022/11/17 06:34:16;;;;;;;9.18;1.40;;;13.50;99.90;;;;;;4991386;28;20038;-81
2022/11/17 06:36:42;;;;;;;8.52;1.65;;;11.70;99.90;;;;;;4983520;28;20038;-82
2022/11/17 06:39:07;;;;;;;6.68;1.58;;;11.70;99.90;;;;;;5004718;28;20703;-81
2022/11/17 06:41:33;;;;;;;10.93;2.47;;;11.80;99.90;;;;;;5003306;28;20054;-82
2022/11/17 06:43:59;;;;;;;9.00;1.77;;;;;;;;;;5004875;28;20098;-81
2022/11/17 06:46:36;;;;;;;7.63;1.45;;;11.70;99.90;;;;;;4996167;28;20035;-83
2022/11/17 06:49:03;;;;;;;6.45;1.80;;;;;;;;;;5010668;28;20019;-83
2022/11/17 06:51:28;;;;;;;8.80;1.85;;;11.60;99.90;;;;;;4999668;28;20050;-82
2022/11/17 06:53:54;;;;;;;7.38;1.60;;;11.80;99.90;;;;;;4994094;28;20030;-80
2022/11/17 06:56:19;;;;;;;7.40;1.60;;;11.60;99.90;;;;;;4987058;28;20031;-81
2022/11/17 06:58:45;;;;;;;3.95;1.25;;;11.70;99.90;;;;;;4986374;28;20021;-82
2022/11/17 07:01:13;;;;;;;6.03;1.20;;;11.70;99.90;;;;;;4986567;28;20035;-80
2022/11/17 07:03:41;;;;;;;7.22;1.23;;;11.60;99.90;;;;;;4987090;28;20465;-80
2022/11/17 07:06:09;;;;;;;4.97;1.10;;;11.60;99.90;;;;;;4987712;28;20121;-84
2022/11/17 07:08:36;;;;;;;3.80;1.00;;;12.90;99.90;;;;;;4987847;28;20019;-79
2022/11/17 07:11:10;;;;;;;4.65;1.40;;;11.70;99.90;;;;;;4986935;28;20127;-83
2022/11/17 07:13:36;;;;;;;6.18;1.60;;;11.70;99.90;;;;;;4988042;28;20084;-80
2022/11/17 07:16:22;;;;;;;5.72;1.65;;;11.60;99.90;;;;;;5001978;28;20057;-83
2022/11/17 07:18:47;;;;;;;8.35;1.67;;;11.60;99.90;;;;;;4981024;28;20483;-84
2022/11/17 07:21:14;;;;;;;9.88;1.48;;;11.50;99.90;;;;;;4980516;28;20034;-81
2022/11/17 07:23:43;;;;;;;9.30;2.00;;;11.50;99.90;;;;;;4981946;28;20037;-81
2022/11/17 07:26:09;;;;;;;8.10;2.22;;;11.50;99.90;;;;;;4982974;28;20110;-79
2022/11/17 07:28:35;;;;;;;7.45;1.92;;;11.50;99.90;;;;;;4983893;28;20447;-80
2022/11/17 07:31:06;;;;;;;11.45;2.38;;;11.40;99.90;;;;;;4982165;28;20046;-83
2022/11/17 07:33:31;;;;;;;;;;;11.60;99.90;;;;;;4981071;28;20030;-80
2022/11/17 07:36:17;;;;;;;8.77;1.75;;;11.50;99.90;;;;;;4980102;28;19917;-84
2022/11/17 07:38:43;;;;;;;12.05;2.03;;;11.30;99.90;;;;;;4994128;28;20034;-81
2022/11/17 07:41:11;;;;;;;18.23;4.55;;;11.30;99.90;;;;;;4976300;28;20034;-85
2022/11/17 07:43:36;;;;;;;8.80;1.98;;;11.40;99.90;;;;;;4979848;28;20568;-86
2022/11/17 07:46:09;;;;;;;15.35;2.60;;;11.70;99.90;;;;;;4979927;28;20113;-86
2022/11/17 07:48:35;;;;;;;13.05;2.80;;;11.40;99.90;;;;;;4980021;28;20033;-82
2022/11/17 07:51:04;;;;;;;8.10;2.20;;;11.40;99.90;;;;;;4980606;28;20036;-84
2022/11/17 07:53:32;;;;;;;12.93;2.20;;;11.80;99.90;;;;;;4981408;28;20034;-84
2022/11/17 07:56:05;;;;;;;11.05;2.08;;;11.50;99.90;;;;;;4981029;28;20026;-84
2022/11/17 07:58:31;;;;;;;11.85;2.47;;;11.50;99.90;;;;;;4980938;28;20090;-85
2022/11/17 08:00:57;;;;;;;9.95;1.75;;;11.60;99.90;;;;;;4980317;28;20068;-85
2022/11/17 08:03:23;;;;;;;12.18;2.55;;;11.60;99.90;;;;;;4980286;28;20063;-81
2022/11/17 08:05:49;;;;;;;12.10;2.17;;;11.50;99.90;;;;;;4997861;28;20034;-82
2022/11/17 08:08:14;;;;;;;14.07;2.28;;;11.60;99.90;;;;;;4979990;28;20270;-81
2022/11/17 08:10:41;;;;;;;11.82;2.33;;;11.70;99.90;;;;;;4980437;28;20398;-81
2022/11/17 08:13:08;;;;;;;13.07;2.33;;;12.10;99.90;;;;;;4980216;28;20057;-84
2022/11/17 08:15:34;;;;;;;14.77;2.40;;;11.60;99.90;;;;;;4998215;28;20094;-84
2022/11/17 08:18:02;;;;;;;14.98;2.70;;;11.60;99.90;;;;;;4980442;28;20058;-83
2022/11/17 08:20:28;;;;;;;12.48;2.83;;;11.50;99.90;;;;;;4998275;28;20041;-86
2022/11/17 08:22:54;;;;;;;11.52;2.42;;;11.40;99.90;;;;;;4980337;28;20018;-83
2022/11/17 08:25:20;;;;;;;17.70;2.28;;;11.40;99.90;;;;;;4980747;28;20098;-86
2022/11/17 08:27:50;;;;;;;14.90;2.22;;;11.50;99.90;;;;;;4980621;28;20026;-83
2022/11/17 08:30:20;;;;;;;12.03;2.10;;;11.40;99.90;;;;;;4984135;28;20073;-85
2022/11/17 08:32:48;;;;;;;13.55;2.60;;;11.40;99.90;;;;;;4986379;28;20634;-84
2022/11/17 08:35:14;;;;;;;8.82;1.83;;;11.30;99.90;;;;;;5005172;28;20031;-87
2022/11/17 08:37:40;;;;;;;10.40;2.22;;;11.90;99.90;;;;;;4985346;28;20458;-85
2022/11/17 08:40:06;;;;;;;13.05;2.78;;;11.30;99.90;;;;;;4984751;28;20019;-86
2022/11/17 08:42:32;;;;;;;11.38;2.05;;;11.40;99.90;;;;;;4985776;28;20026;-83
2022/11/17 08:44:58;;;;;;;9.43;1.70;;;12.40;99.90;;;;;;4985513;28;20022;-83
2022/11/17 08:47:23;;;;;;;7.80;2.00;;;11.50;99.90;;;;;;4986084;28;20314;-86
2022/11/17 08:49:49;;;;;;;11.77;2.13;;;11.50;99.90;;;;;;4986156;28;20105;-83
2022/11/17 08:52:14;;;;;;;7.57;1.95;;;12.10;99.90;;;;;;4985398;28;20420;-85
2022/11/17 08:54:40;;;;;;;10.45;2.03;;;11.60;99.90;;;;;;5002613;28;20121;-83
2022/11/17 08:57:06;;;;;;;10.95;2.05;;;11.60;99.90;;;;;;5001774;28;20022;-82
2022/11/17 08:59:31;;;;;;;9.88;1.73;;;11.60;99.90;;;;;;4964832;28;20030;-82
2022/11/17 09:01:57;;;;;;;10.05;2.30;;;11.50;99.90;;;;;;4980980;28;20044;-87
2022/11/17 09:04:22;;;;;;;8.77;2.00;;;11.70;99.90;;;;;;4966625;28;20027;-83
2022/11/17 09:06:48;;;;;;;10.38;1.90;;;11.50;99.90;;;;;;4985261;28;20025;-85
2022/11/17 09:09:14;;;;;;;9.98;2.83;;;11.40;99.90;;;;;;4981011;28;20057;-87
2022/11/17 09:11:39;;;;;;;12.25;2.20;;;11.40;99.90;;;;;;4999092;28;20106;-85
2022/11/17 09:14:08;;;;;;;7.32;1.98;;;11.40;99.90;;;;;;4966806;28;20031;-85
2022/11/17 09:16:35;;;;;;;9.57;1.83;;;12.30;99.90;;;;;;4962734;28;20372;-86
2022/11/17 09:19:01;;;;;;;6.47;1.58;;;11.30;99.90;;;;;;4985853;28;20037;-86
2022/11/17 09:21:29;;;;;;;14.15;2.22;;;11.30;99.90;;;;;;4981096;28;20022;-85
2022/11/17 09:23:55;;;;;;;11.82;2.00;;;11.20;99.90;;;;;;4982884;28;20549;-86
2022/11/17 09:26:21;;;;;;;11.93;1.75;;;11.20;99.90;;;;;;4981665;28;20034;-87
2022/11/17 09:28:47;;;;;;;8.23;1.80;;;11.20;99.90;;;;;;4973925;28;20054;-86
2022/11/17 09:31:16;;;;;;;11.10;2.00;;;11.10;99.90;;;;;;4961349;28;20533;-84
2022/11/17 09:33:42;;;;;;;8.95;1.90;;;11.40;99.90;;;;;;4961112;28;20030;-84
2022/11/17 09:36:10;;;;;;;8.25;1.50;;;10.90;99.90;;;;;;4962694;28;20034;-85
2022/11/17 09:38:36;;;;;;;12.55;1.58;;;11.00;99.90;;;;;;4966707;28;20046;-84
2022/11/17 09:41:26;;;;;;;10.82;2.33;;;10.90;99.90;;;;;;5000248;28;20549;-83
2022/11/17 09:44:23;;;;;;;6.97;1.77;;;10.90;99.90;;;;;;4992093;28;20027;-84
2022/11/17 09:47:20;;;;;;;9.18;1.85;;;10.90;99.90;;;;;;4994270;28;20030;-86
2022/11/17 09:49:56;;;;;;;8.15;2.10;;;10.80;99.90;;;;;;4974056;28;20396;-87
2022/11/17 09:52:35;;;;;;;8.07;2.35;;;10.90;99.90;;;;;;4979223;28;20041;-85
2022/11/17 09:55:08;;;;;;;10.00;1.90;;;10.90;99.90;;;;;;4998628;28;20030;-87
2022/11/17 09:57:42;;;;;;;11.48;2.45;;;11.10;99.90;;;;;;4970240;28;20022;-85
2022/11/17 10:00:18;;;;;;;13.50;2.13;;;10.90;99.90;;;;;;4985277;28;20053;-86
2022/11/17 10:02:45;;;;;;;9.25;1.75;;;10.90;99.90;;;;;;4988025;28;20050;-85
2022/11/17 10:05:30;;;;;;;10.40;2.22;;;11.10;99.90;;;;;;4981273;28;20031;-87
2022/11/17 10:08:03;;;;;;;11.75;2.05;;;11.00;99.90;;;;;;4964994;28;20019;-88
2022/11/17 10:10:43;;;;;;;11.25;1.90;;;11.20;99.90;;;;;;4974159;28;20031;-88
2022/11/17 10:13:34;;;;;;;11.68;2.17;;;11.50;99.90;;;;;;4973065;28;20029;-83
2022/11/17 10:16:03;;;;;;;10.07;1.92;;;11.30;99.90;;;;;;4975760;28;20026;-88
2022/11/17 10:18:34;;;;;;;11.38;2.35;;;11.40;99.90;;;;;;4978973;28;20034;-86
2022/11/17 10:20:59;;;;;;;12.20;2.67;;;11.50;99.90;;;;;;4994907;28;20038;-81
2022/11/17 10:23:33;;;;;;;11.82;1.90;;;11.60;99.90;;;;;;5006863;28;20049;-84
2022/11/17 10:25:59;;;;;;;11.45;1.92;;;11.80;99.90;;;;;;4980383;28;20053;-85
2022/11/17 10:28:30;;;;;;;8.30;1.73;;;11.90;99.90;;;;;;4977336;28;20066;-85
2022/11/17 10:30:59;;;;;;;15.52;2.72;;;12.10;99.90;;;;;;4992990;28;20019;-86
2022/11/17 10:33:37;;;;;;;7.82;1.90;;;12.20;99.90;;;;;;4975952;28;20026;-85
2022/11/17 10:36:12;;;;;;;10.80;1.83;;;12.30;99.90;;;;;;4990559;28;20022;-84
2022/11/17 10:38:44;;;;;;;9.18;2.17;;;12.70;99.90;;;;;;4983971;28;20030;-86
2022/11/17 10:41:16;;;;;;;9.52;1.95;;;13.80;99.90;;;;;;5005855;28;20030;-83
2022/11/17 10:44:00;;;;;;;12.43;2.17;;;12.90;99.90;;;;;;4982828;28;20029;-85
2022/11/17 10:46:26;;;;;;;15.50;2.10;;;12.80;99.90;;;;;;4980194;28;20438;-85
2022/11/17 10:49:00;;;;;;;9.95;2.03;;;12.70;99.90;;;;;;5000888;28;20046;-85
2022/11/17 10:51:32;;;;;;;6.88;1.90;;;12.60;99.90;;;;;;4976592;28;20078;-84
2022/11/17 10:54:16;;;;;;;9.23;2.22;;;12.50;99.90;;;;;;4973502;28;20030;-86
2022/11/17 10:56:46;;;;;;;12.13;1.85;;;12.30;99.90;;;;;;4973518;28;20077;-82
2022/11/17 10:59:32;;;;;;;9.68;1.90;;;12.40;99.90;;;;;;4997239;28;20026;-85
2022/11/17 11:02:17;;;;;;;13.15;1.98;;;12.20;99.90;;;;;;4979026;28;20022;-83
2022/11/17 11:04:43;;;;;;;11.48;2.17;;;12.20;99.90;;;;;;4977176;28;20268;-84
2022/11/17 11:07:22;;;;;;;10.90;2.13;;;12.10;99.90;;;;;;4996443;28;20015;-84
2022/11/17 11:10:01;;;;;;;13.10;2.45;;;12.20;99.90;;;;;;4978367;28;20030;-87
2022/11/17 11:12:58;;;;;;;15.90;3.65;;;12.20;99.90;;;;;;4977457;28;20245;-82
2022/11/17 11:15:27;;;;;;;15.52;2.50;;;12.40;99.90;;;;;;5014309;28;20027;-85
2022/11/17 11:17:52;;;;;;;14.45;2.80;;;12.40;99.90;;;;;;4996800;28;20014;-82
2022/11/17 11:20:22;;;;;;;13.05;2.03;;;12.40;99.90;;;;;;5000913;28;20050;-83
2022/11/17 11:23:00;;;;;;;12.35;2.50;;;12.50;99.90;;;;;;4972390;28;20043;-85
2022/11/17 11:25:42;;;;;;;15.20;2.55;;;12.60;99.90;;;;;;4976968;28;20019;-84
2022/11/17 11:28:18;;;;;;;15.50;2.67;;;12.60;99.90;;;;;;4985687;28;20391;-84
2022/11/17 11:31:10;;;;;;;14.63;2.42;;;13.00;99.90;;;;;;4962473;28;20026;-86
2022/11/17 11:34:14;;;;;;;12.88;2.20;;;12.60;99.90;;;;;;4967644;28;20062;-84
2022/11/17 11:36:58;;;;;;;12.73;2.85;;;12.70;99.90;;;;;;4956326;28;20039;-86
2022/11/17 11:39:41;;;;;;;10.70;2.25;;;12.70;99.90;;;;;;4991928;28;20058;-86
2022/11/17 11:42:17;;;;;;;10.88;2.47;;;12.80;99.90;;;;;;4979610;28;20567;-86
2022/11/17 11:44:54;;;;;;;11.38;2.15;;;12.80;99.90;;;;;;4971689;28;20026;-86
2022/11/17 11:47:35;;;;;;;8.98;2.25;;;12.90;99.90;;;;;;4974864;28;20026;-88
2022/11/17 11:50:00;;;;;;;;;;;13.00;99.90;;;;;;4979172;28;20022;-87
2022/11/17 11:52:32;;;;;;;13.65;2.08;;;13.10;99.90;;;;;;4998314;28;20389;-87
2022/11/17 11:55:29;;;;;;;9.55;2.05;;;13.20;99.90;;;;;;4995130;28;20034;-88
2022/11/17 11:58:09;;;;;;;9.68;2.05;;;13.10;99.90;;;;;;4964839;23;20098;-87
2022/11/17 12:00:36;;;;;;;12.65;1.83;;;;;;;;;;5016380;28;20082;-88
2022/11/17 12:03:16;;;;;;;9.98;2.08;;;13.20;99.90;;;;;;5013871;28;20041;-88
2022/11/17 12:06:48;;;;;;;11.38;1.98;;;13.00;99.90;;;;;;5016702;28;20034;-88
2022/11/17 12:09:28;;;;;;;12.15;2.30;;;12.90;99.90;;;;;;5007237;28;20014;-87
2022/11/17 12:12:01;;;;;;;10.65;1.80;;;12.90;99.90;;;;;;4993735;28;20010;-90
2022/11/17 12:14:30;;;;;;;5.82;1.63;;;12.80;99.90;;;;;;4993414;28;20018;-90
2022/11/17 12:17:17;;;;;;;8.23;1.95;;;15.30;99.90;;;;;;5018235;28;20410;-89
2022/11/17 12:19:58;;;;;;;9.45;1.75;;;12.60;99.90;;;;;;4996061;28;20042;-89
2022/11/17 12:22:32;;;;;;;8.68;1.70;;;12.40;99.90;;;;;;5004048;28;20042;-90
2022/11/17 12:25:21;;;;;;;11.38;1.77;;;13.90;99.90;;;;;;5015937;28;20026;-89
2022/11/17 12:27:49;;;;;;;10.60;2.10;;;12.20;99.90;;;;;;5009871;28;20066;-89
2022/11/17 12:30:32;;;;;;;9.07;1.85;;;12.20;99.90;;;;;;5013667;28;20019;-90
2022/11/17 12:33:04;;;;;;;8.35;2.13;;;12.00;99.90;;;;;;4985854;28;20019;-91
2022/11/17 13:23:27;;;;;;;;;;;11.70;99.90;;;;;;4962603;28;20557;-84
2022/11/17 13:26:15;;;;;;;6.10;2.00;;;11.80;99.90;;;;;;4975493;28;20368;-83
2022/11/17 13:28:43;;;;;;;8.77;1.73;;;11.80;99.90;;;;;;4974838;28;20033;-84
2022/11/17 13:31:23;;;;;;;5.45;1.30;;;11.90;99.90;;;;;;5020438;28;20060;-87
2022/11/17 13:34:14;;;;;;;9.68;2.20;;;11.90;99.90;;;;;;4993334;28;20026;-85
2022/11/17 13:37:03;;;;;;;8.57;1.77;;;12.00;99.90;;;;;;4991903;28;20081;-80
2022/11/17 13:39:30;;;;;;;11.82;2.28;;;12.00;99.90;;;;;;4985581;28;20065;-86
2022/11/17 13:41:59;;;;;;;9.90;2.28;;;12.00;99.90;;;;;;4989021;28;20442;-83
2022/11/17 13:44:27;;;;;;;12.55;2.35;;;12.00;99.90;;;;;;4989028;28;20057;-87
2022/11/17 13:46:54;;;;;;;7.03;2.25;;;11.90;99.90;;;;;;4989110;28;20018;-85
2022/11/17 13:49:38;;;;;;;7.53;1.67;;;11.90;99.90;;;;;;5007201;28;20391;-82
2022/11/17 13:52:13;;;;;;;5.88;1.60;;;11.80;99.90;;;;;;4982261;28;20034;-84
2022/11/17 13:54:44;;;;;;;11.88;2.10;;;11.80;99.90;;;;;;5015615;28;20114;-84
2022/11/17 13:57:27;;;;;;;8.05;2.22;;;11.70;99.90;;;;;;5001440;28;20034;-85
2022/11/17 13:59:55;;;;;;;8.60;2.22;;;11.60;99.90;;;;;;4993796;28;20072;-85
2022/11/17 14:02:56;;;;;;;10.45;1.92;;;11.80;99.90;;;;;;4988868;28;20058;-85
2022/11/17 14:05:57;;;;;;;12.45;2.50;;;11.70;99.90;;;;;;5002227;28;20085;-82
2022/11/17 14:09:05;;;;;;;6.15;1.50;;;11.60;99.90;;;;;;5008581;28;20108;-85
2022/11/17 14:11:40;;;;;;;11.43;2.78;;;11.60;99.90;;;;;;4977938;28;20038;-81
2022/11/17 14:14:12;;;;;;;11.38;5.22;;;11.60;99.90;;;;;;4969984;28;20736;-86
2022/11/17 14:16:39;;;;;;;17.42;8.68;;;11.60;99.90;;;;;;4987436;28;20033;-83
2022/11/17 14:19:14;;;;;;;10.85;3.47;;;11.60;99.90;;;;;;4990742;28;20026;-85
2022/11/17 14:21:59;;;;;;;12.77;4.35;;;11.50;99.90;;;;;;4996157;28;20030;-86
2022/11/17 14:24:25;;;;;;;7.85;1.88;;;11.50;99.90;;;;;;5001282;28;20603;-85
2022/11/17 14:26:51;;;;;;;8.35;1.98;;;11.50;99.90;;;;;;5007392;28;21408;-86
2022/11/17 14:29:17;;;;;;;8.35;2.55;;;;;;;;;;4999377;28;20026;-84
2022/11/17 14:31:43;;;;;;;9.98;2.35;;;11.50;99.90;;;;;;5005797;28;20014;-86
2022/11/17 14:34:08;;;;;;;8.82;2.60;;;11.40;99.90;;;;;;5001629;28;20034;-87